sensor_id;sensor_type;location;lat;lon;timestamp;temperature;humidity
31003;DHT22;23051;-6.372;106.786;2023-11-19T00:00:17;27.40;84.50
31003;DHT22;23051;-6.372;106.786;2023-11-19T00:02:24;27.40;84.40
31003;DHT22;23051;-6.372;106.786;2023-11-19T00:04:25;27.40;84.30
31003;DHT22;23051;-6.372;106.786;2023-11-19T00:06:27;27.50;84.40
31003;DHT22;23051;-6.372;106.786;2023-11-19T00:08:28;27.50;84.20
31003;DHT22;23051;-6.372;106.786;2023-11-19T00:10:32;27.60;84.20
31003;DHT22;23051;-6.372;106.786;2023-11-19T00:12:34;27.60;84.00
31003;DHT22;23051;-6.372;106.786;2023-11-19T00:14:35;27.70;84.10
31003;DHT22;23051;-6.372;106.786;2023-11-19T00:16:37;27.70;84.00
31003;DHT22;23051;-6.372;106.786;2023-11-19T00:18:39;27.70;83.80
31003;DHT22;23051;-6.372;106.786;2023-11-19T00:20:40;27.80;83.80
31003;DHT22;23051;-6.372;106.786;2023-11-19T00:22:43;27.80;83.70
31003;DHT22;23051;-6.372;106.786;2023-11-19T00:24:44;27.90;83.70
31003;DHT22;23051;-6.372;106.786;2023-11-19T00:26:46;27.90;83.60
31003;DHT22;23051;-6.372;106.786;2023-11-19T00:28:48;28.00;83.60
31003;DHT22;23051;-6.372;106.786;2023-11-19T00:30:49;28.00;83.60
31003;DHT22;23051;-6.372;106.786;2023-11-19T00:32:51;28.10;83.50
31003;DHT22;23051;-6.372;106.786;2023-11-19T00:34:52;28.10;83.40
31003;DHT22;23051;-6.372;106.786;2023-11-19T00:36:54;28.10;83.30
31003;DHT22;23051;-6.372;106.786;2023-11-19T00:38:56;28.20;83.30
31003;DHT22;23051;-6.372;106.786;2023-11-19T00:40:58;28.20;83.20
31003;DHT22;23051;-6.372;106.786;2023-11-19T00:43:03;28.30;83.10
31003;DHT22;23051;-6.372;106.786;2023-11-19T00:45:05;28.30;83.10
31003;DHT22;23051;-6.372;106.786;2023-11-19T00:47:10;28.40;83.00
31003;DHT22;23051;-6.372;106.786;2023-11-19T00:49:15;28.40;82.90
31003;DHT22;23051;-6.372;106.786;2023-11-19T00:51:17;28.40;82.90
31003;DHT22;23051;-6.372;106.786;2023-11-19T00:53:18;28.50;82.80
31003;DHT22;23051;-6.372;106.786;2023-11-19T00:55:20;28.50;82.70
31003;DHT22;23051;-6.372;106.786;2023-11-19T00:57:21;28.50;82.60
31003;DHT22;23051;-6.372;106.786;2023-11-19T01:01:24;28.70;82.50
31003;DHT22;23051;-6.372;106.786;2023-11-19T01:03:26;28.70;82.50
31003;DHT22;23051;-6.372;106.786;2023-11-19T01:05:27;28.70;82.30
31003;DHT22;23051;-6.372;106.786;2023-11-19T01:07:29;28.80;82.30
31003;DHT22;23051;-6.372;106.786;2023-11-19T01:09:33;28.90;82.30
31003;DHT22;23051;-6.372;106.786;2023-11-19T01:11:37;28.90;82.30
31003;DHT22;23051;-6.372;106.786;2023-11-19T01:13:41;29.00;82.10
31003;DHT22;23051;-6.372;106.786;2023-11-19T01:15:42;29.00;82.10
31003;DHT22;23051;-6.372;106.786;2023-11-19T01:17:44;29.00;82.00
31003;DHT22;23051;-6.372;106.786;2023-11-19T01:19:46;29.10;82.20
31003;DHT22;23051;-6.372;106.786;2023-11-19T01:21:48;29.10;81.90
31003;DHT22;23051;-6.372;106.786;2023-11-19T01:23:49;29.20;81.90
31003;DHT22;23051;-6.372;106.786;2023-11-19T01:25:51;29.20;81.80
31003;DHT22;23051;-6.372;106.786;2023-11-19T01:27:52;29.20;81.80
31003;DHT22;23051;-6.372;106.786;2023-11-19T01:29:54;29.20;81.80
31003;DHT22;23051;-6.372;106.786;2023-11-19T01:31:55;29.30;81.90
31003;DHT22;23051;-6.372;106.786;2023-11-19T01:33:57;29.30;81.90
31003;DHT22;23051;-6.372;106.786;2023-11-19T01:36:01;29.20;81.90
31003;DHT22;23051;-6.372;106.786;2023-11-19T01:38:05;29.30;81.90
31003;DHT22;23051;-6.372;106.786;2023-11-19T01:40:07;29.30;81.80
31003;DHT22;23051;-6.372;106.786;2023-11-19T01:42:11;29.40;81.80
31003;DHT22;23051;-6.372;106.786;2023-11-19T01:44:15;29.50;81.70
31003;DHT22;23051;-6.372;106.786;2023-11-19T01:46:17;29.50;81.60
31003;DHT22;23051;-6.372;106.786;2023-11-19T01:48:19;29.60;81.50
31003;DHT22;23051;-6.372;106.786;2023-11-19T01:50:21;29.60;81.40
31003;DHT22;23051;-6.372;106.786;2023-11-19T01:52:24;29.70;81.30
31003;DHT22;23051;-6.372;106.786;2023-11-19T01:54:26;29.70;81.20
31003;DHT22;23051;-6.372;106.786;2023-11-19T01:56:29;29.80;81.20
31003;DHT22;23051;-6.372;106.786;2023-11-19T01:58:31;29.80;81.20
31003;DHT22;23051;-6.372;106.786;2023-11-19T02:00:33;29.80;81.10
31003;DHT22;23051;-6.372;106.786;2023-11-19T02:02:35;29.90;81.10
31003;DHT22;23051;-6.372;106.786;2023-11-19T02:04:36;29.90;81.00
31003;DHT22;23051;-6.372;106.786;2023-11-19T02:06:40;30.00;81.00
31003;DHT22;23051;-6.372;106.786;2023-11-19T02:08:43;30.00;81.00
31003;DHT22;23051;-6.372;106.786;2023-11-19T02:10:44;30.10;81.00
31003;DHT22;23051;-6.372;106.786;2023-11-19T02:12:46;30.00;80.80
31003;DHT22;23051;-6.372;106.786;2023-11-19T02:14:48;30.10;80.90
31003;DHT22;23051;-6.372;106.786;2023-11-19T02:16:49;30.10;80.80
31003;DHT22;23051;-6.372;106.786;2023-11-19T02:18:53;30.20;80.70
31003;DHT22;23051;-6.372;106.786;2023-11-19T02:20:58;30.30;80.70
31003;DHT22;23051;-6.372;106.786;2023-11-19T02:23:00;30.30;80.60
31003;DHT22;23051;-6.372;106.786;2023-11-19T02:25:06;30.30;80.50
31003;DHT22;23051;-6.372;106.786;2023-11-19T02:27:17;30.40;80.50
31003;DHT22;23051;-6.372;106.786;2023-11-19T02:29:23;30.40;80.40
31003;DHT22;23051;-6.372;106.786;2023-11-19T02:31:36;30.40;80.30
31003;DHT22;23051;-6.372;106.786;2023-11-19T02:33:38;30.50;80.40
31003;DHT22;23051;-6.372;106.786;2023-11-19T02:35:40;30.50;80.30
31003;DHT22;23051;-6.372;106.786;2023-11-19T02:37:44;30.60;80.30
31003;DHT22;23051;-6.372;106.786;2023-11-19T02:39:46;30.60;80.20
31003;DHT22;23051;-6.372;106.786;2023-11-19T02:41:48;30.60;80.10
31003;DHT22;23051;-6.372;106.786;2023-11-19T02:43:54;30.70;80.10
31003;DHT22;23051;-6.372;106.786;2023-11-19T02:50:27;30.90;79.80
31003;DHT22;23051;-6.372;106.786;2023-11-19T02:52:28;30.90;79.70
31003;DHT22;23051;-6.372;106.786;2023-11-19T02:54:30;30.90;79.70
31003;DHT22;23051;-6.372;106.786;2023-11-19T02:56:36;31.00;79.60
31003;DHT22;23051;-6.372;106.786;2023-11-19T02:58:39;31.00;79.50
31003;DHT22;23051;-6.372;106.786;2023-11-19T03:02:58;31.10;79.30
31003;DHT22;23051;-6.372;106.786;2023-11-19T03:05:00;31.20;79.30
31003;DHT22;23051;-6.372;106.786;2023-11-19T03:07:01;31.20;79.10
31003;DHT22;23051;-6.372;106.786;2023-11-19T03:09:03;31.30;79.10
31003;DHT22;23051;-6.372;106.786;2023-11-19T03:11:13;31.30;78.90
31003;DHT22;23051;-6.372;106.786;2023-11-19T03:13:15;31.40;78.90
31003;DHT22;23051;-6.372;106.786;2023-11-19T03:15:20;31.50;78.90
31003;DHT22;23051;-6.372;106.786;2023-11-19T03:17:22;31.40;78.70
31003;DHT22;23051;-6.372;106.786;2023-11-19T03:19:25;31.50;78.70
31003;DHT22;23051;-6.372;106.786;2023-11-19T03:21:29;31.50;78.60
31003;DHT22;23051;-6.372;106.786;2023-11-19T03:23:32;31.50;78.70
31003;DHT22;23051;-6.372;106.786;2023-11-19T03:25:34;31.50;79.50
31003;DHT22;23051;-6.372;106.786;2023-11-19T03:27:38;31.50;78.70
31003;DHT22;23051;-6.372;106.786;2023-11-19T03:29:40;31.50;78.70
31003;DHT22;23051;-6.372;106.786;2023-11-19T03:31:44;31.50;78.80
31003;DHT22;23051;-6.372;106.786;2023-11-19T03:33:46;31.50;78.80
31003;DHT22;23051;-6.372;106.786;2023-11-19T03:35:52;31.50;78.70
31003;DHT22;23051;-6.372;106.786;2023-11-19T03:39:57;31.70;78.60
31003;DHT22;23051;-6.372;106.786;2023-11-19T03:42:02;31.70;78.40
31003;DHT22;23051;-6.372;106.786;2023-11-19T03:44:04;31.80;78.40
31003;DHT22;23051;-6.372;106.786;2023-11-19T03:48:13;31.90;78.20
31003;DHT22;23051;-6.372;106.786;2023-11-19T03:50:19;31.90;78.00
31003;DHT22;23051;-6.372;106.786;2023-11-19T03:52:23;32.00;77.90
31003;DHT22;23051;-6.372;106.786;2023-11-19T03:54:27;32.10;77.80
31003;DHT22;23051;-6.372;106.786;2023-11-19T03:56:28;32.20;77.60
31003;DHT22;23051;-6.372;106.786;2023-11-19T03:58:34;32.20;77.50
31003;DHT22;23051;-6.372;106.786;2023-11-19T04:00:36;32.30;77.40
31003;DHT22;23051;-6.372;106.786;2023-11-19T04:02:38;32.30;77.30
31003;DHT22;23051;-6.372;106.786;2023-11-19T04:04:39;32.40;77.20
31003;DHT22;23051;-6.372;106.786;2023-11-19T04:06:41;32.50;77.10
31003;DHT22;23051;-6.372;106.786;2023-11-19T04:08:42;32.50;76.90
31003;DHT22;23051;-6.372;106.786;2023-11-19T04:10:47;32.60;76.90
31003;DHT22;23051;-6.372;106.786;2023-11-19T04:12:49;32.60;76.70
31003;DHT22;23051;-6.372;106.786;2023-11-19T04:14:50;32.60;76.60
31003;DHT22;23051;-6.372;106.786;2023-11-19T04:16:52;32.70;76.70
31003;DHT22;23051;-6.372;106.786;2023-11-19T04:18:57;32.70;76.50
31003;DHT22;23051;-6.372;106.786;2023-11-19T04:21:06;32.80;76.60
31003;DHT22;23051;-6.372;106.786;2023-11-19T04:23:10;32.70;76.50
31003;DHT22;23051;-6.372;106.786;2023-11-19T04:25:12;32.80;76.50
31003;DHT22;23051;-6.372;106.786;2023-11-19T04:27:14;32.80;76.50
31003;DHT22;23051;-6.372;106.786;2023-11-19T04:29:17;32.90;76.40
31003;DHT22;23051;-6.372;106.786;2023-11-19T04:31:18;32.90;76.30
31003;DHT22;23051;-6.372;106.786;2023-11-19T04:33:20;33.00;76.20
31003;DHT22;23051;-6.372;106.786;2023-11-19T04:35:21;33.00;76.10
31003;DHT22;23051;-6.372;106.786;2023-11-19T04:37:23;33.10;76.00
31003;DHT22;23051;-6.372;106.786;2023-11-19T04:39:27;33.10;75.80
31003;DHT22;23051;-6.372;106.786;2023-11-19T04:41:28;33.20;75.60
31003;DHT22;23051;-6.372;106.786;2023-11-19T04:43:30;33.30;75.50
31003;DHT22;23051;-6.372;106.786;2023-11-19T04:45:32;33.30;75.40
31003;DHT22;23051;-6.372;106.786;2023-11-19T04:47:36;33.30;75.20
31003;DHT22;23051;-6.372;106.786;2023-11-19T04:49:42;33.40;75.30
31003;DHT22;23051;-6.372;106.786;2023-11-19T04:51:46;33.40;75.20
31003;DHT22;23051;-6.372;106.786;2023-11-19T04:53:50;33.40;75.20
31003;DHT22;23051;-6.372;106.786;2023-11-19T04:55:52;33.40;75.20
31003;DHT22;23051;-6.372;106.786;2023-11-19T04:57:54;33.30;75.30
31003;DHT22;23051;-6.372;106.786;2023-11-19T04:59:58;33.30;75.30
31003;DHT22;23051;-6.372;106.786;2023-11-19T05:04:09;33.30;76.00
31003;DHT22;23051;-6.372;106.786;2023-11-19T05:06:11;33.30;75.20
31003;DHT22;23051;-6.372;106.786;2023-11-19T05:08:13;33.30;75.30
31003;DHT22;23051;-6.372;106.786;2023-11-19T05:10:14;33.30;75.30
31003;DHT22;23051;-6.372;106.786;2023-11-19T05:12:16;33.30;75.20
31003;DHT22;23051;-6.372;106.786;2023-11-19T05:14:17;33.50;75.10
31003;DHT22;23051;-6.372;106.786;2023-11-19T05:16:21;33.50;74.80
31003;DHT22;23051;-6.372;106.786;2023-11-19T05:18:22;33.60;74.50
31003;DHT22;23051;-6.372;106.786;2023-11-19T05:20:24;33.80;74.40
31003;DHT22;23051;-6.372;106.786;2023-11-19T05:22:26;33.80;74.20
31003;DHT22;23051;-6.372;106.786;2023-11-19T05:24:28;33.90;74.00
31003;DHT22;23051;-6.372;106.786;2023-11-19T05:26:30;34.00;73.80
31003;DHT22;23051;-6.372;106.786;2023-11-19T05:28:31;34.10;73.70
31003;DHT22;23051;-6.372;106.786;2023-11-19T05:30:33;34.20;73.60
31003;DHT22;23051;-6.372;106.786;2023-11-19T05:32:34;34.20;73.40
31003;DHT22;23051;-6.372;106.786;2023-11-19T05:34:36;34.30;73.20
31003;DHT22;23051;-6.372;106.786;2023-11-19T05:36:40;34.40;73.10
31003;DHT22;23051;-6.372;106.786;2023-11-19T05:38:41;34.40;72.90
31003;DHT22;23051;-6.372;106.786;2023-11-19T05:40:43;34.50;72.80
31003;DHT22;23051;-6.372;106.786;2023-11-19T05:42:45;34.60;72.60
31003;DHT22;23051;-6.372;106.786;2023-11-19T05:44:46;34.60;72.50
31003;DHT22;23051;-6.372;106.786;2023-11-19T05:46:50;34.60;72.50
31003;DHT22;23051;-6.372;106.786;2023-11-19T05:48:51;34.60;72.50
31003;DHT22;23051;-6.372;106.786;2023-11-19T05:50:54;34.60;72.60
31003;DHT22;23051;-6.372;106.786;2023-11-19T05:52:55;34.50;72.50
31003;DHT22;23051;-6.372;106.786;2023-11-19T05:54:57;34.50;72.60
31003;DHT22;23051;-6.372;106.786;2023-11-19T05:57:04;34.50;72.70
31003;DHT22;23051;-6.372;106.786;2023-11-19T05:59:08;34.40;72.60
31003;DHT22;23051;-6.372;106.786;2023-11-19T06:01:16;34.50;72.60
31003;DHT22;23051;-6.372;106.786;2023-11-19T06:03:18;34.60;72.50
31003;DHT22;23051;-6.372;106.786;2023-11-19T06:05:19;34.70;72.30
31003;DHT22;23051;-6.372;106.786;2023-11-19T06:07:21;34.80;72.10
31003;DHT22;23051;-6.372;106.786;2023-11-19T06:09:27;34.90;71.90
31003;DHT22;23051;-6.372;106.786;2023-11-19T06:11:31;34.90;71.60
31003;DHT22;23051;-6.372;106.786;2023-11-19T06:13:34;35.00;71.40
31003;DHT22;23051;-6.372;106.786;2023-11-19T06:15:36;35.10;71.30
31003;DHT22;23051;-6.372;106.786;2023-11-19T06:17:38;35.10;71.20
31003;DHT22;23051;-6.372;106.786;2023-11-19T06:19:39;35.10;71.40
31003;DHT22;23051;-6.372;106.786;2023-11-19T06:21:44;35.00;71.50
31003;DHT22;23051;-6.372;106.786;2023-11-19T06:23:48;34.90;71.80
31003;DHT22;23051;-6.372;106.786;2023-11-19T06:25:53;34.80;72.00
31003;DHT22;23051;-6.372;106.786;2023-11-19T06:27:57;34.70;72.40
31003;DHT22;23051;-6.372;106.786;2023-11-19T06:29:58;34.60;72.60
31003;DHT22;23051;-6.372;106.786;2023-11-19T06:32:00;34.50;72.70
31003;DHT22;23051;-6.372;106.786;2023-11-19T06:34:01;34.50;72.80
31003;DHT22;23051;-6.372;106.786;2023-11-19T06:36:06;34.40;72.90
31003;DHT22;23051;-6.372;106.786;2023-11-19T06:38:08;34.50;73.00
31003;DHT22;23051;-6.372;106.786;2023-11-19T06:40:10;34.50;72.90
31003;DHT22;23051;-6.372;106.786;2023-11-19T06:42:12;34.50;72.80
31003;DHT22;23051;-6.372;106.786;2023-11-19T06:44:16;34.50;72.70
31003;DHT22;23051;-6.372;106.786;2023-11-19T06:46:19;34.50;72.80
31003;DHT22;23051;-6.372;106.786;2023-11-19T06:48:21;34.60;72.90
31003;DHT22;23051;-6.372;106.786;2023-11-19T06:50:22;34.50;72.80
31003;DHT22;23051;-6.372;106.786;2023-11-19T06:52:24;34.50;72.90
31003;DHT22;23051;-6.372;106.786;2023-11-19T06:54:26;34.50;72.90
31003;DHT22;23051;-6.372;106.786;2023-11-19T06:56:28;34.60;72.80
31003;DHT22;23051;-6.372;106.786;2023-11-19T06:58:29;34.60;72.60
31003;DHT22;23051;-6.372;106.786;2023-11-19T07:00:31;34.70;72.40
31003;DHT22;23051;-6.372;106.786;2023-11-19T07:02:35;34.80;72.20
31003;DHT22;23051;-6.372;106.786;2023-11-19T07:04:42;35.00;72.00
31003;DHT22;23051;-6.372;106.786;2023-11-19T07:06:51;35.10;71.80
31003;DHT22;23051;-6.372;106.786;2023-11-19T07:08:56;35.10;71.50
31003;DHT22;23051;-6.372;106.786;2023-11-19T07:10:58;35.20;71.30
31003;DHT22;23051;-6.372;106.786;2023-11-19T07:13:00;35.30;71.40
31003;DHT22;23051;-6.372;106.786;2023-11-19T07:15:05;35.40;71.10
31003;DHT22;23051;-6.372;106.786;2023-11-19T07:17:09;35.50;71.00
31003;DHT22;23051;-6.372;106.786;2023-11-19T07:19:14;35.60;70.90
31003;DHT22;23051;-6.372;106.786;2023-11-19T07:21:19;35.60;70.80
31003;DHT22;23051;-6.372;106.786;2023-11-19T07:23:24;35.70;70.80
31003;DHT22;23051;-6.372;106.786;2023-11-19T07:27:33;35.80;70.40
31003;DHT22;23051;-6.372;106.786;2023-11-19T07:29:40;35.90;70.30
31003;DHT22;23051;-6.372;106.786;2023-11-19T07:31:49;36.00;70.20
31003;DHT22;23051;-6.372;106.786;2023-11-19T07:33:52;36.00;70.10
31003;DHT22;23051;-6.372;106.786;2023-11-19T07:36:00;35.90;70.20
31003;DHT22;23051;-6.372;106.786;2023-11-19T07:38:08;35.80;70.30
31003;DHT22;23051;-6.372;106.786;2023-11-19T07:40:30;35.80;70.60
31003;DHT22;23051;-6.372;106.786;2023-11-19T07:42:33;35.70;70.70
31003;DHT22;23051;-6.372;106.786;2023-11-19T07:44:35;35.70;70.90
31003;DHT22;23051;-6.372;106.786;2023-11-19T07:46:40;35.60;71.20
31003;DHT22;23051;-6.372;106.786;2023-11-19T07:48:45;35.50;71.40
31003;DHT22;23051;-6.372;106.786;2023-11-19T07:50:50;35.40;71.50
31003;DHT22;23051;-6.372;106.786;2023-11-19T07:52:51;35.40;71.80
31003;DHT22;23051;-6.372;106.786;2023-11-19T07:54:55;35.30;71.70
31003;DHT22;23051;-6.372;106.786;2023-11-19T07:56:57;35.30;71.80
31003;DHT22;23051;-6.372;106.786;2023-11-19T07:58:58;35.30;71.70
31003;DHT22;23051;-6.372;106.786;2023-11-19T08:01:03;35.40;71.50
31003;DHT22;23051;-6.372;106.786;2023-11-19T08:03:07;35.60;71.30
31003;DHT22;23051;-6.372;106.786;2023-11-19T08:07:19;35.80;70.50
31003;DHT22;23051;-6.372;106.786;2023-11-19T08:09:25;36.00;70.40
31003;DHT22;23051;-6.372;106.786;2023-11-19T08:11:28;36.10;70.00
31003;DHT22;23051;-6.372;106.786;2023-11-19T08:13:29;36.30;69.80
31003;DHT22;23051;-6.372;106.786;2023-11-19T08:15:34;36.30;69.60
31003;DHT22;23051;-6.372;106.786;2023-11-19T08:17:41;36.30;69.50
31003;DHT22;23051;-6.372;106.786;2023-11-19T08:19:45;36.20;69.60
31003;DHT22;23051;-6.372;106.786;2023-11-19T08:21:51;36.20;70.00
31003;DHT22;23051;-6.372;106.786;2023-11-19T08:23:55;36.10;70.00
31003;DHT22;23051;-6.372;106.786;2023-11-19T08:28:03;36.10;70.20
31003;DHT22;23051;-6.372;106.786;2023-11-19T08:30:10;36.20;70.00
31003;DHT22;23051;-6.372;106.786;2023-11-19T08:32:14;36.30;69.90
31003;DHT22;23051;-6.372;106.786;2023-11-19T08:34:18;36.40;69.50
31003;DHT22;23051;-6.372;106.786;2023-11-19T08:36:20;36.30;69.30
31003;DHT22;23051;-6.372;106.786;2023-11-19T08:38:24;36.30;69.70
31003;DHT22;23051;-6.372;106.786;2023-11-19T08:40:28;36.10;70.00
31003;DHT22;23051;-6.372;106.786;2023-11-19T08:42:30;36.00;70.30
31003;DHT22;23051;-6.372;106.786;2023-11-19T08:44:34;35.90;70.40
31003;DHT22;23051;-6.372;106.786;2023-11-19T08:48:36;36.90;68.90
31003;DHT22;23051;-6.372;106.786;2023-11-19T08:50:40;37.50;67.50
31003;DHT22;23051;-6.372;106.786;2023-11-19T08:52:42;37.80;66.30
31003;DHT22;23051;-6.372;106.786;2023-11-19T08:54:43;38.30;65.40
31003;DHT22;23051;-6.372;106.786;2023-11-19T08:56:45;38.60;64.30
31003;DHT22;23051;-6.372;106.786;2023-11-19T08:58:47;38.70;64.00
31003;DHT22;23051;-6.372;106.786;2023-11-19T09:00:48;38.50;64.10
31003;DHT22;23051;-6.372;106.786;2023-11-19T09:02:52;37.80;65.70
31003;DHT22;23051;-6.372;106.786;2023-11-19T09:04:56;37.30;67.20
31003;DHT22;23051;-6.372;106.786;2023-11-19T09:06:58;37.00;68.10
31003;DHT22;23051;-6.372;106.786;2023-11-19T09:09:02;36.60;69.00
31003;DHT22;23051;-6.372;106.786;2023-11-19T09:11:08;36.20;69.90
31003;DHT22;23051;-6.372;106.786;2023-11-19T09:13:10;35.90;70.60
31003;DHT22;23051;-6.372;106.786;2023-11-19T09:15:14;35.70;71.20
31003;DHT22;23051;-6.372;106.786;2023-11-19T09:17:16;35.70;71.60
31003;DHT22;23051;-6.372;106.786;2023-11-19T09:19:19;35.50;71.70
31003;DHT22;23051;-6.372;106.786;2023-11-19T09:21:23;35.30;72.00
31003;DHT22;23051;-6.372;106.786;2023-11-19T09:23:27;35.10;72.50
31003;DHT22;23051;-6.372;106.786;2023-11-19T09:25:36;34.90;72.80
31003;DHT22;23051;-6.372;106.786;2023-11-19T09:27:37;34.80;73.10
31003;DHT22;23051;-6.372;106.786;2023-11-19T09:29:39;34.60;73.40
31003;DHT22;23051;-6.372;106.786;2023-11-19T09:31:41;34.50;73.80
31003;DHT22;23051;-6.372;106.786;2023-11-19T09:33:48;34.40;73.90
31003;DHT22;23051;-6.372;106.786;2023-11-19T09:35:49;34.30;74.10
31003;DHT22;23051;-6.372;106.786;2023-11-19T09:37:53;34.20;74.20
31003;DHT22;23051;-6.372;106.786;2023-11-19T09:39:55;34.10;74.40
31003;DHT22;23051;-6.372;106.786;2023-11-19T09:41:57;34.20;74.50
31003;DHT22;23051;-6.372;106.786;2023-11-19T09:44:01;34.20;74.40
31003;DHT22;23051;-6.372;106.786;2023-11-19T09:46:06;34.10;74.20
31003;DHT22;23051;-6.372;106.786;2023-11-19T09:48:09;34.00;74.40
31003;DHT22;23051;-6.372;106.786;2023-11-19T09:50:14;34.00;74.50
31003;DHT22;23051;-6.372;106.786;2023-11-19T09:52:17;33.90;74.60
31003;DHT22;23051;-6.372;106.786;2023-11-19T09:54:19;33.90;74.80
31003;DHT22;23051;-6.372;106.786;2023-11-19T09:56:40;33.80;74.80
31003;DHT22;23051;-6.372;106.786;2023-11-19T09:58:44;33.70;74.90
31003;DHT22;23051;-6.372;106.786;2023-11-19T10:00:46;33.60;75.10
31003;DHT22;23051;-6.372;106.786;2023-11-19T10:02:49;33.50;75.30
31003;DHT22;23051;-6.372;106.786;2023-11-19T10:04:51;33.50;75.50
31003;DHT22;23051;-6.372;106.786;2023-11-19T10:06:54;33.40;75.70
31003;DHT22;23051;-6.372;106.786;2023-11-19T10:08:58;33.40;75.80
31003;DHT22;23051;-6.372;106.786;2023-11-19T10:11:03;33.40;75.70
31003;DHT22;23051;-6.372;106.786;2023-11-19T10:13:04;33.30;75.60
31003;DHT22;23051;-6.372;106.786;2023-11-19T10:15:06;33.20;75.70
31003;DHT22;23051;-6.372;106.786;2023-11-19T10:17:14;33.20;76.00
31003;DHT22;23051;-6.372;106.786;2023-11-19T10:19:19;33.10;77.10
31003;DHT22;23051;-6.372;106.786;2023-11-19T10:21:25;33.00;76.40
31003;DHT22;23051;-6.372;106.786;2023-11-19T10:23:28;32.90;76.50
31003;DHT22;23051;-6.372;106.786;2023-11-19T10:25:35;32.90;76.50
31003;DHT22;23051;-6.372;106.786;2023-11-19T10:27:37;32.90;76.50
31003;DHT22;23051;-6.372;106.786;2023-11-19T10:29:39;32.90;76.60
31003;DHT22;23051;-6.372;106.786;2023-11-19T10:31:40;32.90;77.40
31003;DHT22;23051;-6.372;106.786;2023-11-19T10:33:43;33.00;76.30
31003;DHT22;23051;-6.372;106.786;2023-11-19T10:35:51;33.30;75.70
31003;DHT22;23051;-6.372;106.786;2023-11-19T10:37:54;33.50;75.00
31003;DHT22;23051;-6.372;106.786;2023-11-19T10:39:55;33.70;74.70
31003;DHT22;23051;-6.372;106.786;2023-11-19T10:41:57;33.70;74.50
31003;DHT22;23051;-6.372;106.786;2023-11-19T10:44:01;33.80;74.30
31003;DHT22;23051;-6.372;106.786;2023-11-19T10:46:11;33.80;74.30
31003;DHT22;23051;-6.372;106.786;2023-11-19T10:50:37;33.20;75.10
31003;DHT22;23051;-6.372;106.786;2023-11-19T10:52:39;32.80;76.30
31003;DHT22;23051;-6.372;106.786;2023-11-19T10:54:44;32.10;77.80
31003;DHT22;23051;-6.372;106.786;2023-11-19T10:56:51;31.70;79.00
31003;DHT22;23051;-6.372;106.786;2023-11-19T10:58:56;31.50;79.50
31003;DHT22;23051;-6.372;106.786;2023-11-19T11:01:02;31.40;79.80
31003;DHT22;23051;-6.372;106.786;2023-11-19T11:03:14;31.40;80.00
31003;DHT22;23051;-6.372;106.786;2023-11-19T11:05:21;31.30;79.90
31003;DHT22;23051;-6.372;106.786;2023-11-19T11:07:23;31.30;80.00
31003;DHT22;23051;-6.372;106.786;2023-11-19T11:09:27;31.30;80.10
31003;DHT22;23051;-6.372;106.786;2023-11-19T11:11:32;31.20;80.00
31003;DHT22;23051;-6.372;106.786;2023-11-19T11:13:36;31.20;80.00
31003;DHT22;23051;-6.372;106.786;2023-11-19T11:15:38;31.10;80.10
31003;DHT22;23051;-6.372;106.786;2023-11-19T11:17:41;30.90;80.30
31003;DHT22;23051;-6.372;106.786;2023-11-19T11:19:46;30.60;80.80
31003;DHT22;23051;-6.372;106.786;2023-11-19T11:21:52;30.30;81.40
31003;DHT22;23051;-6.372;106.786;2023-11-19T11:28:20;29.90;82.60
31003;DHT22;23051;-6.372;106.786;2023-11-19T11:34:41;29.60;83.20
31003;DHT22;23051;-6.372;106.786;2023-11-19T11:39:05;29.60;83.20
31003;DHT22;23051;-6.372;106.786;2023-11-19T11:45:40;29.40;83.30
31003;DHT22;23051;-6.372;106.786;2023-11-19T11:49:54;29.40;83.20
31003;DHT22;23051;-6.372;106.786;2023-11-19T11:51:59;29.50;83.20
31003;DHT22;23051;-6.372;106.786;2023-11-19T11:54:01;29.50;83.00
31003;DHT22;23051;-6.372;106.786;2023-11-19T11:56:08;29.50;82.90
31003;DHT22;23051;-6.372;106.786;2023-11-19T11:58:12;29.50;82.70
31003;DHT22;23051;-6.372;106.786;2023-11-19T12:00:40;29.50;82.60
31003;DHT22;23051;-6.372;106.786;2023-11-19T12:02:41;29.60;82.60
31003;DHT22;23051;-6.372;106.786;2023-11-19T12:04:49;29.50;82.50
31003;DHT22;23051;-6.372;106.786;2023-11-19T12:09:01;29.40;82.70
31003;DHT22;23051;-6.372;106.786;2023-11-19T12:11:05;29.40;82.60
31003;DHT22;23051;-6.372;106.786;2023-11-19T12:13:09;29.50;82.50
31003;DHT22;23051;-6.372;106.786;2023-11-19T12:15:13;29.50;82.50
31003;DHT22;23051;-6.372;106.786;2023-11-19T12:17:36;29.50;82.40
31003;DHT22;23051;-6.372;106.786;2023-11-19T12:19:44;29.50;82.40
31003;DHT22;23051;-6.372;106.786;2023-11-19T12:21:51;29.50;82.40
31003;DHT22;23051;-6.372;106.786;2023-11-19T12:23:58;29.40;82.60
31003;DHT22;23051;-6.372;106.786;2023-11-19T12:28:27;29.40;82.70
31003;DHT22;23051;-6.372;106.786;2023-11-19T12:30:33;29.30;82.70
31003;DHT22;23051;-6.372;106.786;2023-11-19T12:32:45;29.30;82.60
31003;DHT22;23051;-6.372;106.786;2023-11-19T12:34:52;29.30;82.50
31003;DHT22;23051;-6.372;106.786;2023-11-19T12:37:03;29.30;82.70
31003;DHT22;23051;-6.372;106.786;2023-11-19T12:39:12;29.30;82.70
31003;DHT22;23051;-6.372;106.786;2023-11-19T12:41:18;29.30;82.70
31003;DHT22;23051;-6.372;106.786;2023-11-19T12:43:28;29.30;82.60
31003;DHT22;23051;-6.372;106.786;2023-11-19T12:45:36;29.30;82.60
31003;DHT22;23051;-6.372;106.786;2023-11-19T12:47:47;29.20;82.60
31003;DHT22;23051;-6.372;106.786;2023-11-19T12:50:03;29.20;82.70
31003;DHT22;23051;-6.372;106.786;2023-11-19T12:52:15;29.10;82.80
31003;DHT22;23051;-6.372;106.786;2023-11-19T12:54:31;29.10;82.90
31003;DHT22;23051;-6.372;106.786;2023-11-19T12:56:32;29.10;82.90
31003;DHT22;23051;-6.372;106.786;2023-11-19T12:58:40;29.10;82.90
31003;DHT22;23051;-6.372;106.786;2023-11-19T13:00:43;29.10;82.70
31003;DHT22;23051;-6.372;106.786;2023-11-19T13:02:50;29.10;82.80
31003;DHT22;23051;-6.372;106.786;2023-11-19T13:07:24;29.10;82.80
31003;DHT22;23051;-6.372;106.786;2023-11-19T13:09:26;29.10;82.80
31003;DHT22;23051;-6.372;106.786;2023-11-19T13:11:32;29.00;82.80
31003;DHT22;23051;-6.372;106.786;2023-11-19T13:15:41;29.00;83.10
31003;DHT22;23051;-6.372;106.786;2023-11-19T13:17:50;28.90;83.20
31003;DHT22;23051;-6.372;106.786;2023-11-19T13:19:54;28.80;83.40
31003;DHT22;23051;-6.372;106.786;2023-11-19T13:22:00;28.80;83.50
31003;DHT22;23051;-6.372;106.786;2023-11-19T13:24:02;28.70;83.50
31003;DHT22;23051;-6.372;106.786;2023-11-19T13:26:03;28.70;83.60
31003;DHT22;23051;-6.372;106.786;2023-11-19T13:28:05;28.70;83.60
31003;DHT22;23051;-6.372;106.786;2023-11-19T13:30:08;28.70;83.70